Terminal Aerodrome Forecast
Issued by NWS

Home | Current Version | Previous Version | Text Only | Print | Product List | Glossary On
Versions: 1 2 3 4 5 6 7 8 9 10 11 12 13 14 15 16 17 18
000
FTUS44 KLZK 281736
TAFLIT
TAF
KLIT 281736Z 2818/2918 28009G18KT P6SM VCSH SCT035 BKN250
     FM282100 34009KT P6SM VCSH SCT025 BKN050
     FM290300 31006KT P6SM SCT050 BKN250
     FM291300 04006KT P6SM FEW050 SCT250=

USA.gov is the U.S. government's official web portal to all federal, state and local government web resources and services.